CFG214 LFPG-EDDF
Flight info
| Callsign | CFG214 |
|---|---|
| Flight time | N/A |
| Altitude | 23000 |
| Route | RANUX DCT VALEK DCT LIPNI UN858 LIMGO Z111 RAMOB IMCOM1D |
| Aircraft | A20N/M-SDE2E3FGHIRWXY/LB1 |
Departure
| Time | 2026-05-01 14:42 |
|---|---|
| Airport | Charles de Gaulle International Airport (LFPG) |
Arrival
| Time | N/A |
|---|---|
| Airport | Frankfurt Main Airport (EDDF) |
| Time | Latitude | Longitude | Altitude | Speed | Heading |
|---|---|---|---|---|---|
| 2026-05-01 14:08 | 49.00202 | 2.56676 | 353 ft | 0 kts | 3° |
| 2026-05-01 14:31 | 49.00156 | 2.56671 | 357 ft | 4 kts | 357° |
| 2026-05-01 14:31 | 49.00131 | 2.56679 | 360 ft | 4 kts | 326° |
| 2026-05-01 14:31 | 49.00118 | 2.56704 | 360 ft | 1 kts | 266° |
| 2026-05-01 14:31 | 49.00118 | 2.56705 | 360 ft | 1 kts | 266° |
| 2026-05-01 14:36 | 49.00116 | 2.56655 | 364 ft | 9 kts | 265° |
| 2026-05-01 14:36 | 49.00077 | 2.56569 | 355 ft | 12 kts | 194° |
| 2026-05-01 14:36 | 48.99988 | 2.56568 | 353 ft | 13 kts | 175° |
| 2026-05-01 14:37 | 48.99891 | 2.56587 | 354 ft | 15 kts | 174° |
| 2026-05-01 14:37 | 48.99826 | 2.56482 | 356 ft | 16 kts | 262° |
| 2026-05-01 14:37 | 48.99815 | 2.56313 | 354 ft | 12 kts | 264° |
| 2026-05-01 14:37 | 48.99809 | 2.56194 | 354 ft | 13 kts | 265° |
| 2026-05-01 14:38 | 48.99798 | 2.56069 | 361 ft | 11 kts | 246° |
| 2026-05-01 14:38 | 48.99752 | 2.56030 | 359 ft | 5 kts | 180° |
| 2026-05-01 14:38 | 48.99725 | 2.56032 | 354 ft | 0 kts | 176° |
| 2026-05-01 14:39 | 48.99695 | 2.56036 | 357 ft | 8 kts | 175° |
| 2026-05-01 14:39 | 48.99628 | 2.56053 | 354 ft | 10 kts | 151° |
| 2026-05-01 14:39 | 48.99616 | 2.56124 | 355 ft | 0 kts | 86° |
| 2026-05-01 14:41 | 48.99616 | 2.56139 | 355 ft | 9 kts | 86° |
| 2026-05-01 14:41 | 48.99638 | 2.56557 | 359 ft | 76 kts | 85° |
| 2026-05-01 14:41 | 48.99697 | 2.57681 | 359 ft | 134 kts | 85° |
| 2026-05-01 14:41 | 48.99794 | 2.59316 | 494 ft | 165 kts | 87° |
| 2026-05-01 14:42 | 48.99911 | 2.61010 | 1177 ft | 160 kts | 88° |
| 2026-05-01 14:42 | 49.00039 | 2.62725 | 1772 ft | 167 kts | 86° |
| 2026-05-01 14:42 | 49.00175 | 2.64542 | 2242 ft | 182 kts | 86° |
| 2026-05-01 14:42 | 49.00288 | 2.66578 | 2644 ft | 203 kts | 88° |
| 2026-05-01 14:43 | 49.00355 | 2.68849 | 2933 ft | 229 kts | 91° |
| 2026-05-01 14:43 | 49.00376 | 2.71421 | 3366 ft | 256 kts | 91° |
| 2026-05-01 14:43 | 49.00425 | 2.74233 | 4137 ft | 268 kts | 87° |
| 2026-05-01 14:43 | 49.00599 | 2.77052 | 5360 ft | 268 kts | 85° |
| 2026-05-01 14:44 | 49.00797 | 2.79898 | 6416 ft | 273 kts | 86° |
| 2026-05-01 14:44 | 49.01157 | 2.85727 | 8442 ft | 281 kts | 87° |
| 2026-05-01 14:44 | 49.01318 | 2.88708 | 9478 ft | 285 kts | 88° |
| 2026-05-01 14:45 | 49.01474 | 2.91745 | 10461 ft | 290 kts | 88° |
| 2026-05-01 14:45 | 49.02118 | 2.98282 | 11450 ft | 335 kts | 82° |
| 2026-05-01 14:45 | 49.02528 | 3.01835 | 12197 ft | 343 kts | 83° |
| 2026-05-01 14:46 | 49.02942 | 3.05432 | 13156 ft | 346 kts | 83° |
| 2026-05-01 14:46 | 49.03785 | 3.12726 | 14890 ft | 354 kts | 83° |
| 2026-05-01 14:46 | 49.04214 | 3.16442 | 15669 ft | 358 kts | 83° |
| 2026-05-01 14:47 | 49.04649 | 3.20209 | 16447 ft | 363 kts | 83° |
| 2026-05-01 14:47 | 49.05088 | 3.24021 | 17181 ft | 368 kts | 84° |
| 2026-05-01 14:47 | 49.05532 | 3.27887 | 17937 ft | 373 kts | 84° |
| 2026-05-01 14:48 | 49.06432 | 3.35752 | 19317 ft | 380 kts | 84° |
| 2026-05-01 14:48 | 49.06887 | 3.39739 | 20024 ft | 383 kts | 84° |
| 2026-05-01 14:48 | 49.07802 | 3.47799 | 21379 ft | 389 kts | 84° |
| 2026-05-01 14:49 | 49.08690 | 3.55992 | 22712 ft | 394 kts | 87° |
| 2026-05-01 14:49 | 49.09247 | 3.64360 | 23215 ft | 398 kts | 87° |
| 2026-05-01 14:50 | 49.09624 | 3.69919 | 23215 ft | 397 kts | 87° |
| 2026-05-01 14:50 | 49.10376 | 3.81144 | 23217 ft | 398 kts | 87° |
| 2026-05-01 14:51 | 49.10653 | 3.85345 | 23215 ft | 398 kts | 87° |
| 2026-05-01 14:51 | 49.11202 | 3.93746 | 23211 ft | 398 kts | 87° |
| 2026-05-01 14:52 | 49.11741 | 4.02102 | 23209 ft | 399 kts | 87° |
| 2026-05-01 14:52 | 49.12011 | 4.06315 | 23212 ft | 399 kts | 87° |
| 2026-05-01 14:52 | 49.12546 | 4.14739 | 23213 ft | 399 kts | 87° |
| 2026-05-01 14:53 | 49.12812 | 4.18959 | 23211 ft | 399 kts | 87° |
| 2026-05-01 14:53 | 49.13076 | 4.23176 | 23211 ft | 400 kts | 87° |
| 2026-05-01 14:53 | 49.13339 | 4.27403 | 23213 ft | 399 kts | 87° |
| 2026-05-01 14:53 | 49.13602 | 4.31628 | 23215 ft | 400 kts | 86° |
| 2026-05-01 14:54 | 49.14071 | 4.35828 | 23213 ft | 402 kts | 79° |
| 2026-05-01 14:54 | 49.14901 | 4.39921 | 23216 ft | 405 kts | 71° |
| 2026-05-01 14:54 | 49.15985 | 4.43891 | 23221 ft | 405 kts | 70° |
| 2026-05-01 14:54 | 49.17073 | 4.47868 | 23222 ft | 405 kts | 70° |
| 2026-05-01 14:55 | 49.18152 | 4.51842 | 23222 ft | 405 kts | 70° |
| 2026-05-01 14:55 | 49.19229 | 4.55826 | 23227 ft | 405 kts | 70° |
| 2026-05-01 14:55 | 49.20305 | 4.59809 | 23224 ft | 405 kts | 70° |
| 2026-05-01 14:55 | 49.21380 | 4.63794 | 23228 ft | 405 kts | 70° |
| 2026-05-01 14:56 | 49.22453 | 4.67778 | 23232 ft | 405 kts | 70° |
| 2026-05-01 14:56 | 49.23523 | 4.71759 | 23238 ft | 405 kts | 70° |
| 2026-05-01 14:56 | 49.24594 | 4.75750 | 23234 ft | 405 kts | 70° |
| 2026-05-01 14:56 | 49.25662 | 4.79732 | 23240 ft | 405 kts | 70° |
| 2026-05-01 14:57 | 49.26728 | 4.83719 | 23236 ft | 405 kts | 70° |
| 2026-05-01 14:57 | 49.28857 | 4.91698 | 23235 ft | 405 kts | 69° |
| 2026-05-01 14:57 | 49.29920 | 4.95692 | 23241 ft | 405 kts | 69° |
| 2026-05-01 14:58 | 49.30980 | 4.99683 | 23241 ft | 405 kts | 69° |
| 2026-05-01 14:58 | 49.32036 | 5.03667 | 23241 ft | 404 kts | 69° |
| 2026-05-01 14:58 | 49.32737 | 5.06314 | 23245 ft | 405 kts | 69° |
| 2026-05-01 14:58 | 49.33795 | 5.10314 | 23239 ft | 404 kts | 69° |
| 2026-05-01 14:59 | 49.34850 | 5.14308 | 23243 ft | 405 kts | 69° |
| 2026-05-01 14:59 | 49.36261 | 5.19664 | 23243 ft | 404 kts | 69° |
| 2026-05-01 14:59 | 49.36953 | 5.22295 | 23241 ft | 404 kts | 69° |
| 2026-05-01 14:59 | 49.38006 | 5.26305 | 23245 ft | 404 kts | 69° |
| 2026-05-01 15:00 | 49.40114 | 5.34350 | 23248 ft | 404 kts | 70° |
| 2026-05-01 15:00 | 49.41151 | 5.38322 | 23243 ft | 404 kts | 69° |
| 2026-05-01 15:00 | 49.42194 | 5.42320 | 23252 ft | 405 kts | 70° |
| 2026-05-01 15:01 | 49.43243 | 5.46350 | 23249 ft | 404 kts | 70° |
| 2026-05-01 15:01 | 49.44285 | 5.50357 | 23250 ft | 404 kts | 70° |
| 2026-05-01 15:01 | 49.45326 | 5.54366 | 23255 ft | 405 kts | 70° |
| 2026-05-01 15:01 | 49.46367 | 5.58385 | 23250 ft | 404 kts | 70° |
| 2026-05-01 15:02 | 49.47403 | 5.62395 | 23251 ft | 404 kts | 70° |
| 2026-05-01 15:02 | 49.48087 | 5.65048 | 23251 ft | 403 kts | 70° |
| 2026-05-01 15:02 | 49.49471 | 5.70417 | 23251 ft | 404 kts | 70° |
| 2026-05-01 15:02 | 49.50503 | 5.74433 | 23253 ft | 403 kts | 70° |
| 2026-05-01 15:03 | 49.51533 | 5.78440 | 23251 ft | 403 kts | 70° |
| 2026-05-01 15:03 | 49.52535 | 5.82471 | 23254 ft | 403 kts | 71° |
| 2026-05-01 15:03 | 49.53500 | 5.86506 | 23257 ft | 402 kts | 71° |
| 2026-05-01 15:03 | 49.54482 | 5.90546 | 23260 ft | 403 kts | 71° |
| 2026-05-01 15:04 | 49.55475 | 5.94576 | 23259 ft | 402 kts | 70° |
| 2026-05-01 15:04 | 49.56467 | 5.98588 | 23265 ft | 402 kts | 70° |
| 2026-05-01 15:04 | 49.57458 | 6.02600 | 23264 ft | 403 kts | 70° |
| 2026-05-01 15:04 | 49.58455 | 6.06643 | 23266 ft | 402 kts | 70° |
| 2026-05-01 15:05 | 49.59449 | 6.10679 | 23268 ft | 402 kts | 70° |
| 2026-05-01 15:05 | 49.60436 | 6.14701 | 23266 ft | 402 kts | 70° |
| 2026-05-01 15:05 | 49.61422 | 6.18727 | 23263 ft | 401 kts | 70° |
| 2026-05-01 15:05 | 49.62406 | 6.22749 | 23266 ft | 401 kts | 71° |
| 2026-05-01 15:06 | 49.63403 | 6.26768 | 23261 ft | 402 kts | 68° |
| 2026-05-01 15:06 | 49.64656 | 6.30623 | 23266 ft | 402 kts | 61° |
| 2026-05-01 15:06 | 49.66098 | 6.34325 | 23264 ft | 402 kts | 60° |
| 2026-05-01 15:06 | 49.67529 | 6.38025 | 23261 ft | 402 kts | 60° |
| 2026-05-01 15:07 | 49.68953 | 6.41728 | 23261 ft | 402 kts | 60° |
| 2026-05-01 15:07 | 49.70376 | 6.45440 | 23257 ft | 402 kts | 61° |
| 2026-05-01 15:07 | 49.71801 | 6.49163 | 23256 ft | 402 kts | 61° |
| 2026-05-01 15:07 | 49.73191 | 6.52894 | 23257 ft | 401 kts | 64° |
| 2026-05-01 15:08 | 49.74467 | 6.56726 | 23252 ft | 401 kts | 64° |
| 2026-05-01 15:08 | 49.75752 | 6.60558 | 23251 ft | 400 kts | 64° |
| 2026-05-01 15:08 | 49.77034 | 6.64381 | 23253 ft | 401 kts | 64° |
| 2026-05-01 15:08 | 49.78317 | 6.68211 | 23251 ft | 400 kts | 64° |
| 2026-05-01 15:09 | 49.79600 | 6.72046 | 23254 ft | 400 kts | 64° |
| 2026-05-01 15:09 | 49.80878 | 6.75872 | 23258 ft | 401 kts | 64° |
| 2026-05-01 15:09 | 49.82155 | 6.79704 | 23258 ft | 400 kts | 64° |
| 2026-05-01 15:09 | 49.83428 | 6.83538 | 23256 ft | 401 kts | 64° |
| 2026-05-01 15:10 | 49.84703 | 6.87378 | 23261 ft | 401 kts | 64° |
| 2026-05-01 15:10 | 49.87250 | 6.95066 | 23258 ft | 401 kts | 64° |
| 2026-05-01 15:10 | 49.88519 | 6.98909 | 23285 ft | 401 kts | 64° |
| 2026-05-01 15:11 | 49.89790 | 7.02765 | 23208 ft | 401 kts | 64° |
| 2026-05-01 15:11 | 49.92328 | 7.10468 | 22362 ft | 400 kts | 64° |
| 2026-05-01 15:11 | 49.93588 | 7.14301 | 21806 ft | 397 kts | 64° |
| 2026-05-01 15:12 | 49.94836 | 7.18106 | 21244 ft | 393 kts | 65° |
| 2026-05-01 15:12 | 49.97285 | 7.25585 | 20142 ft | 384 kts | 65° |
| 2026-05-01 15:12 | 49.98490 | 7.29273 | 19583 ft | 381 kts | 65° |
| 2026-05-01 15:13 | 50.02042 | 7.40187 | 17909 ft | 372 kts | 65° |
| 2026-05-01 15:14 | 50.04350 | 7.47297 | 16844 ft | 365 kts | 66° |
| 2026-05-01 15:14 | 50.05484 | 7.50802 | 16325 ft | 361 kts | 66° |
| 2026-05-01 15:14 | 50.07722 | 7.57736 | 15271 ft | 356 kts | 66° |
| 2026-05-01 15:15 | 50.09912 | 7.64569 | 14238 ft | 351 kts | 69° |
| 2026-05-01 15:15 | 50.10448 | 7.71846 | 13215 ft | 335 kts | 103° |
| 2026-05-01 15:16 | 50.09138 | 7.78697 | 12246 ft | 327 kts | 108° |
| 2026-05-01 15:16 | 50.08218 | 7.85547 | 11291 ft | 323 kts | 90° |
| 2026-05-01 15:17 | 50.09390 | 7.92312 | 11012 ft | 341 kts | 71° |
| 2026-05-01 15:18 | 50.11888 | 8.02494 | 10610 ft | 320 kts | 71° |
| 2026-05-01 15:18 | 50.12663 | 8.05669 | 10496 ft | 307 kts | 72° |
| 2026-05-01 15:19 | 50.14846 | 8.14650 | 10079 ft | 292 kts | 72° |
| 2026-05-01 15:19 | 50.16279 | 8.20587 | 9846 ft | 290 kts | 72° |
| 2026-05-01 15:19 | 50.16991 | 8.23538 | 9721 ft | 291 kts | 72° |
| 2026-05-01 15:20 | 50.18403 | 8.29394 | 9484 ft | 290 kts | 72° |
| 2026-05-01 15:20 | 50.19108 | 8.32319 | 9355 ft | 287 kts | 73° |
| 2026-05-01 15:20 | 50.19428 | 8.35383 | 9240 ft | 282 kts | 97° |
| 2026-05-01 15:21 | 50.18888 | 8.38220 | 9122 ft | 276 kts | 122° |
| 2026-05-01 15:21 | 50.17613 | 8.40408 | 9014 ft | 273 kts | 147° |
| 2026-05-01 15:21 | 50.15898 | 8.41638 | 8886 ft | 272 kts | 160° |
| 2026-05-01 15:21 | 50.14074 | 8.42407 | 8779 ft | 272 kts | 176° |
| 2026-05-01 15:22 | 50.10648 | 8.40322 | 8538 ft | 277 kts | 226° |
| 2026-05-01 15:22 | 50.09676 | 8.37709 | 8436 ft | 282 kts | 246° |
| 2026-05-01 15:22 | 50.08994 | 8.34845 | 8319 ft | 282 kts | 247° |
| 2026-05-01 15:23 | 50.08319 | 8.31983 | 8187 ft | 281 kts | 247° |
| 2026-05-01 15:23 | 50.07636 | 8.29123 | 8072 ft | 281 kts | 247° |
| 2026-05-01 15:23 | 50.06953 | 8.26285 | 7961 ft | 280 kts | 246° |
| 2026-05-01 15:23 | 50.06264 | 8.23449 | 7833 ft | 280 kts | 246° |
| 2026-05-01 15:24 | 50.05573 | 8.20617 | 7727 ft | 280 kts | 246° |
| 2026-05-01 15:24 | 50.04882 | 8.17799 | 7601 ft | 278 kts | 246° |
| 2026-05-01 15:24 | 50.04196 | 8.14989 | 7488 ft | 278 kts | 246° |
| 2026-05-01 15:24 | 50.03512 | 8.12188 | 7405 ft | 275 kts | 246° |
| 2026-05-01 15:25 | 50.02845 | 8.09456 | 7337 ft | 265 kts | 246° |
| 2026-05-01 15:25 | 50.02201 | 8.06823 | 7257 ft | 255 kts | 246° |
| 2026-05-01 15:25 | 50.01583 | 8.04290 | 7181 ft | 246 kts | 245° |
| 2026-05-01 15:25 | 50.00988 | 8.01854 | 7113 ft | 237 kts | 245° |
| 2026-05-01 15:26 | 50.00411 | 7.99508 | 7041 ft | 229 kts | 245° |
| 2026-05-01 15:26 | 49.99852 | 7.97225 | 6874 ft | 224 kts | 245° |
| 2026-05-01 15:26 | 49.99299 | 7.94970 | 6699 ft | 220 kts | 245° |
| 2026-05-01 15:26 | 49.98745 | 7.92722 | 6602 ft | 227 kts | 245° |
| 2026-05-01 15:27 | 49.98179 | 7.90431 | 6500 ft | 226 kts | 245° |
| 2026-05-01 15:27 | 49.97628 | 7.88176 | 6416 ft | 221 kts | 245° |
| 2026-05-01 15:27 | 49.97070 | 7.85907 | 6322 ft | 227 kts | 244° |
| 2026-05-01 15:28 | 49.94950 | 7.82887 | 5937 ft | 210 kts | 188° |
| 2026-05-01 15:28 | 49.93530 | 7.83012 | 5755 ft | 203 kts | 160° |
| 2026-05-01 15:28 | 49.92211 | 7.83818 | 5688 ft | 207 kts | 159° |
| 2026-05-01 15:29 | 49.89502 | 7.85430 | 5491 ft | 209 kts | 159° |
| 2026-05-01 15:29 | 49.88244 | 7.86520 | 5395 ft | 208 kts | 136° |
| 2026-05-01 15:29 | 49.87485 | 7.90730 | 5236 ft | 220 kts | 77° |
| 2026-05-01 15:30 | 49.88690 | 7.95095 | 5046 ft | 218 kts | 68° |
| 2026-05-01 15:31 | 49.90910 | 8.03786 | 4689 ft | 217 kts | 73° |
| 2026-05-01 15:31 | 49.91964 | 8.08164 | 4491 ft | 214 kts | 73° |
| 2026-05-01 15:32 | 49.93003 | 8.12524 | 4318 ft | 214 kts | 73° |
| 2026-05-01 15:32 | 49.94037 | 8.16860 | 4151 ft | 215 kts | 73° |
| 2026-05-01 15:33 | 49.95546 | 8.23164 | 3978 ft | 194 kts | 73° |
| 2026-05-01 15:34 | 49.96919 | 8.28928 | 3624 ft | 191 kts | 72° |